This is the latest recevied weather packets stored in our database for station/object N0LTM. If no packets are shown the sender has not sent any weather packets the latest 10 day(s).
| Time | Temp. | Humidity | Pressure | Rain* | Wind** | Luminosity | Snow |
|---|---|---|---|---|---|---|---|
| 1777493155 | 10° C | 68% | 1015.1 hPa | 0 mm | - | - | - |
| 1777492252 | 10° C | 67% | 1015 hPa | 0 mm | - | - | - |
| 1777491959 | 10.56° C | 65% | 1015 hPa | 0 mm | - | - | - |
| 1777488956 | 12.22° C | 60% | 1014.5 hPa | 0 mm | - | - | - |
| 1777487756 | 11.11° C | 63% | 1014.5 hPa | 0 mm | - | - | - |
| 1777487154 | 11.11° C | 66% | 1014.5 hPa | 0 mm | - | - | - |
| 1777485665 | 11.67° C | 65% | 1014.4 hPa | 0 mm | - | - | - |
| 1777485055 | 11.67° C | 62% | 1014.4 hPa | 0 mm | - | - | - |
| 1777483857 | 11.67° C | 66% | 1014.4 hPa | 0 mm | - | - | - |
| 1777482064 | 12.22° C | 70% | 1014.5 hPa | 0 mm | - | - | - |
| 1777481164 | 11.67° C | 72% | 1014.5 hPa | 0 mm | - | - | - |
| 1777479053 | 11.67° C | 69% | 1014.4 hPa | 0 mm | - | - | - |
| 1777478756 | 11.67° C | 68% | 1014.4 hPa | 0 mm | - | - | - |
| 1777478152 | 12.78° C | 68% | 1014.3 hPa | 0 mm | - | - | - |
| 1777476353 | 11.67° C | 68% | 1014.2 hPa | 0 mm | - | - | - |
| 1777475155 | 12.22° C | 67% | 1014 hPa | 0 mm | - | - | - |
| 1777474252 | 12.22° C | 67% | 1013.8 hPa | 0 mm | - | - | - |
| 1777473652 | 11.67° C | 67% | 1013.9 hPa | 0 mm | - | - | - |
| 1777473060 | 11.67° C | 70% | 1013.7 hPa | 0 mm | - | - | - |
| 1777472156 | 11.67° C | 75% | 1013.8 hPa | 0 mm | - | - | - |
| 1777469757 | 10.56° C | 83% | 1013.8 hPa | 0 mm | - | - | - |
| 1777468852 | 10.56° C | 86% | 1013.8 hPa | 0 mm | - | - | - |
| 1777468252 | 10.56° C | 87% | 1013.9 hPa | 0 mm | - | - | - |
| 1777467052 | 10.56° C | 90% | 1013.7 hPa | 0 mm | - | - | - |
| 1777465255 | 9.44° C | 90% | 1013.9 hPa | 0 mm | - | - | - |
* Rain latest hour (hover to see other rain measurements)
** Current wind speed in m/s (hover to see current wind gust speed)